Wetterstation Vordersexau
Wetterdaten: Juli 2015
Datum Temp. A. Feuchte A. Luftdruck Regen Wind Richtung Taupunkt Windchill Windben
01.07.2015 27,5 C 56 % 1015,2 hPa 0,0 l/m 1,7 km/h W-NW 16,4 C 27,5 C 0,9 km/h
02.07.2015 29,2 C 58 % 1016,7 hPa 0,0 l/m 0,8 km/h O-NO 19,0 C 29,2 C 0,4 km/h
03.07.2015 29,7 C 58 % 1019,5 hPa 0,0 l/m 2,7 km/h S-SO 19,6 C 29,7 C 1,5 km/h
04.07.2015 29,6 C 52 % 1017,7 hPa 0,0 l/m 3,8 km/h O 17,2 C 29,6 C 2,1 km/h
05.07.2015 30,8 C 51 % 1013,9 hPa 0,0 l/m 3,0 km/h W-NW 18,3 C 30,7 C 1,6 km/h
06.07.2015 27,1 C 52 % 1017,9 hPa 0,0 l/m 1,3 km/h NO 15,9 C 27,1 C 0,7 km/h
07.07.2015 27,9 C 55 % 1010,3 hPa 0,4 l/m 6,4 km/h W 16,5 C 27,9 C 3,6 km/h
08.07.2015 21,5 C 58 % 1012,5 hPa 0,0 l/m 3,1 km/h W-NW 12,4 C 21,2 C 1,7 km/h
09.07.2015 19,7 C 56 % 1017,9 hPa 0,0 l/m 2,2 km/h W-NW 10,2 C 19,5 C 1,2 km/h
10.07.2015 20,3 C 57 % 1018,3 hPa 0,0 l/m 5,0 km/h NO 10,3 C 20,1 C 2,8 km/h
11.07.2015 24,4 C 49 % 1014,3 hPa 0,0 l/m 6,6 km/h O-NO 11,3 C 24,3 C 3,7 km/h
12.07.2015 23,8 C 50 % 1016,3 hPa 0,0 l/m 3,4 km/h N-NO 12,1 C 23,5 C 1,9 km/h
13.07.2015 22,6 C 57 % 1016,6 hPa 0,0 l/m 1,6 km/h NO 13,4 C 22,6 C 0,9 km/h
14.07.2015 24,0 C 57 % 1016,3 hPa 0,0 l/m 3,5 km/h SO 14,2 C 23,9 C 1,9 km/h
15.07.2015 25,6 C 54 % 1016,5 hPa 0,0 l/m 2,5 km/h O-NO 14,2 C 25,5 C 1,4 km/h
16.07.2015 27,7 C 50 % 1014,3 hPa 0,0 l/m 3,1 km/h W-NW 14,6 C 27,6 C 1,7 km/h
17.07.2015 30,0 C 44 % 1013,1 hPa 0,0 l/m 3,6 km/h S-SO 14,8 C 30,0 C 2,0 km/h
18.07.2015 25,3 C 62 % 1014,8 hPa 1,2 l/m 1,9 km/h S-SO 16,8 C 25,2 C 1,1 km/h
19.07.2015 24,1 C 64 % 1010,8 hPa 0,8 l/m 6,5 km/h W-SW 16,4 C 23,7 C 3,6 km/h
20.07.2015 27,3 C 56 % 1012,8 hPa 0,0 l/m 5,8 km/h N-NO 16,7 C 27,3 C 3,2 km/h
21.07.2015 28,2 C 56 % 1013,3 hPa 0,0 l/m 2,6 km/h S-SO 17,3 C 28,2 C 1,5 km/h
22.07.2015 27,2 C 61 % 1011,5 hPa 3,3 l/m 3,6 km/h SO 17,6 C 27,1 C 2,0 km/h
23.07.2015 23,5 C 67 % 1013,8 hPa 4,6 l/m 0,7 km/h NO 16,5 C 23,5 C 0,4 km/h
24.07.2015 25,7 C 60 % 1007,8 hPa 0,0 l/m 2,1 km/h O-NO 16,2 C 25,6 C 1,1 km/h
25.07.2015 21,0 C 58 % 1009,8 hPa 4,6 l/m 13,4 km/h N-NO 12,0 C 19,2 C 7,5 km/h
26.07.2015 17,8 C 62 % 1012,2 hPa 2,1 l/m 1,0 km/h N-NO 9,4 C 17,8 C 0,6 km/h
27.07.2015 19,3 C 67 % 1006,7 hPa 0,4 l/m 11,6 km/h W-SW 12,4 C 17,5 C 6,4 km/h
28.07.2015 19,7 C 57 % 1008,6 hPa 0,0 l/m 10,0 km/h W 10,5 C 18,2 C 5,6 km/h
29.07.2015 15,2 C 79 % 1010,2 hPa 2,1 l/m 1,1 km/h NO 11,4 C 15,1 C 0,6 km/h
30.07.2015 16,8 C 62 % 1013,7 hPa 0,0 l/m 2,0 km/h NO 8,8 C 16,7 C 1,1 km/h
31.07.2015 18,9 C 56 % 1013,5 hPa 0,0 l/m 2,4 km/h N-NO 8,8 C 18,8 C 1,3 km/h
Min-Datum 31.07.15 16.07.15 24.07.15 9 Tage 01.07.15 - 31.07.15 31.07.15 01.07.15
Min-Zeit 06:04 17:51 21:04 - 00:51 - 06:04 06:04 00:51
Minimum 6,6 C 19 % 1003,0 hPa - 0,0 km/h - 4,1 C 6,6 C 0,0 km/h
Max-Datum 17.07.15 01.07.15 03.07.15 23.07.15 17.07.15 - 03.07.15 17.07.15 17.07.15
Max-Zeit 17:51 05:51 08:51 01:04 10:51 - 08:51 17:51 10:51
Maximum 43,3 C 84 % 1020,9 hPa 4,6 l/m 38,2 km/h
S-SO
- 22,8 C 43,3 C 21,2 km/h
S-SO
Durchschnitt 24,2 C 57 % 1013,8 hPa #19,5 l/m 3,8 km/h W-NW 14,2 C 24,0 C 2,1 km/h

Durchschnitt Minimum Temp.15,2 C
Durchschnitt Maximum Temp.34,7 C
www.sexauwetter.de